sensor_id;sensor_type;location;lat;lon;timestamp;pressure;altitude;pressure_sealevel;temperature;humidity
16431;BME280;8325;49.284;7.238;2023-04-21T04:02:25;98365.09;;;2.14;100.00
16431;BME280;8325;49.284;7.238;2023-04-21T04:06:36;98354.09;;;2.12;100.00
16431;BME280;8325;49.284;7.238;2023-04-21T04:10:48;98354.75;;;2.25;100.00
16431;BME280;8325;49.284;7.238;2023-04-21T04:14:59;98354.34;;;2.30;100.00
16431;BME280;8325;49.284;7.238;2023-04-21T04:19:11;98352.88;;;2.06;100.00
16431;BME280;8325;49.284;7.238;2023-04-21T04:23:23;98355.19;;;2.10;100.00
16431;BME280;8325;49.284;7.238;2023-04-21T04:27:36;98345.56;;;2.12;100.00
16431;BME280;8325;49.284;7.238;2023-04-21T04:31:49;98341.84;;;2.04;100.00
16431;BME280;8325;49.284;7.238;2023-04-21T04:36:00;98341.03;;;2.04;100.00
16431;BME280;8325;49.284;7.238;2023-04-21T04:40:12;98345.13;;;2.06;100.00
16431;BME280;8325;49.284;7.238;2023-04-21T04:44:24;98349.09;;;2.11;100.00
16431;BME280;8325;49.284;7.238;2023-04-21T04:48:36;98346.88;;;2.06;100.00
16431;BME280;8325;49.284;7.238;2023-04-21T04:52:47;98345.31;;;2.15;100.00
16431;BME280;8325;49.284;7.238;2023-04-21T04:56:59;98348.84;;;2.14;100.00
16431;BME280;8325;49.284;7.238;2023-04-21T05:01:12;98354.28;;;2.20;100.00
16431;BME280;8325;49.284;7.238;2023-04-21T05:05:24;98348.31;;;2.20;100.00
16431;BME280;8325;49.284;7.238;2023-04-21T05:09:36;98354.75;;;2.25;100.00
16431;BME280;8325;49.284;7.238;2023-04-21T05:13:47;98346.81;;;2.38;100.00
16431;BME280;8325;49.284;7.238;2023-04-21T05:17:59;98356.19;;;2.70;100.00
16431;BME280;8325;49.284;7.238;2023-04-21T05:22:10;98353.03;;;2.87;100.00
16431;BME280;8325;49.284;7.238;2023-04-21T05:26:22;98359.44;;;2.93;100.00
16431;BME280;8325;49.284;7.238;2023-04-21T05:30:34;98363.75;;;2.92;100.00
16431;BME280;8325;49.284;7.238;2023-04-21T05:34:45;98366.91;;;2.96;100.00
16431;BME280;8325;49.284;7.238;2023-04-21T05:39:12;98365.69;;;3.00;100.00
16431;BME280;8325;49.284;7.238;2023-04-21T05:43:24;98353.38;;;3.23;100.00
16431;BME280;8325;49.284;7.238;2023-04-21T05:47:35;98350.44;;;3.37;100.00
16431;BME280;8325;49.284;7.238;2023-04-21T05:51:48;98355.91;;;3.54;100.00
16431;BME280;8325;49.284;7.238;2023-04-21T05:56:00;98365.16;;;3.56;100.00
16431;BME280;8325;49.284;7.238;2023-04-21T06:00:11;98369.78;;;3.72;100.00
16431;BME280;8325;49.284;7.238;2023-04-21T06:04:23;98372.25;;;3.83;100.00
16431;BME280;8325;49.284;7.238;2023-04-21T06:08:35;98377.41;;;3.93;100.00
16431;BME280;8325;49.284;7.238;2023-04-21T06:12:47;98371.69;;;4.09;100.00
16431;BME280;8325;49.284;7.238;2023-04-21T06:16:58;98367.44;;;4.37;100.00
16431;BME280;8325;49.284;7.238;2023-04-21T06:21:10;98368.91;;;4.59;100.00
16431;BME280;8325;49.284;7.238;2023-04-21T06:25:21;98362.72;;;5.07;100.00
16431;BME280;8325;49.284;7.238;2023-04-21T06:29:33;98365.13;;;5.18;100.00
16431;BME280;8325;49.284;7.238;2023-04-21T06:33:44;98370.16;;;5.20;100.00
16431;BME280;8325;49.284;7.238;2023-04-21T06:37:56;98368.66;;;5.27;100.00
16431;BME280;8325;49.284;7.238;2023-04-21T06:42:07;98361.69;;;5.27;100.00
16431;BME280;8325;49.284;7.238;2023-04-21T06:46:25;98364.16;;;5.19;100.00
16431;BME280;8325;49.284;7.238;2023-04-21T06:50:37;98351.09;;;5.39;100.00
16431;BME280;8325;49.284;7.238;2023-04-21T06:54:48;98354.00;;;5.53;100.00
16431;BME280;8325;49.284;7.238;2023-04-21T06:59:00;98357.00;;;5.76;100.00
16431;BME280;8325;49.284;7.238;2023-04-21T07:03:12;98346.09;;;5.91;100.00
16431;BME280;8325;49.284;7.238;2023-04-21T07:07:23;98337.69;;;5.89;100.00
16431;BME280;8325;49.284;7.238;2023-04-21T07:11:35;98342.00;;;5.98;100.00
16431;BME280;8325;49.284;7.238;2023-04-21T07:15:46;98346.25;;;6.51;100.00
16431;BME280;8325;49.284;7.238;2023-04-21T07:19:58;98335.53;;;7.14;100.00
16431;BME280;8325;49.284;7.238;2023-04-21T07:24:09;98339.09;;;8.13;100.00
16431;BME280;8325;49.284;7.238;2023-04-21T07:28:21;98337.22;;;8.79;100.00
16431;BME280;8325;49.284;7.238;2023-04-21T07:32:33;98332.53;;;9.14;96.15
16431;BME280;8325;49.284;7.238;2023-04-21T07:36:45;98335.44;;;9.19;94.38
16431;BME280;8325;49.284;7.238;2023-04-21T07:40:57;98342.44;;;9.18;95.18
16431;BME280;8325;49.284;7.238;2023-04-21T07:45:08;98339.25;;;9.39;95.27
16431;BME280;8325;49.284;7.238;2023-04-21T07:49:20;98331.09;;;9.42;92.58
16431;BME280;8325;49.284;7.238;2023-04-21T07:53:33;98332.16;;;9.25;92.94
16431;BME280;8325;49.284;7.238;2023-04-21T07:57:45;98333.53;;;9.44;93.23
16431;BME280;8325;49.284;7.238;2023-04-21T08:01:56;98333.41;;;9.37;92.96
16431;BME280;8325;49.284;7.238;2023-04-21T08:06:08;98316.78;;;9.61;92.71
16431;BME280;8325;49.284;7.238;2023-04-21T08:10:20;98318.63;;;9.53;90.81
16431;BME280;8325;49.284;7.238;2023-04-21T08:14:31;98312.19;;;9.40;91.85
16431;BME280;8325;49.284;7.238;2023-04-21T08:18:43;98305.72;;;9.36;92.10
16431;BME280;8325;49.284;7.238;2023-04-21T08:22:56;98300.50;;;9.36;92.61
16431;BME280;8325;49.284;7.238;2023-04-21T08:27:08;98292.56;;;9.53;90.84
16431;BME280;8325;49.284;7.238;2023-04-21T08:31:20;98298.47;;;9.47;92.44
16431;BME280;8325;49.284;7.238;2023-04-21T08:35:33;98292.09;;;9.49;93.23
16431;BME280;8325;49.284;7.238;2023-04-21T08:39:47;98272.88;;;9.27;92.60
16431;BME280;8325;49.284;7.238;2023-04-21T08:44:01;98268.41;;;9.59;92.61
16431;BME280;8325;49.284;7.238;2023-04-21T08:48:13;98268.72;;;9.64;91.23
16431;BME280;8325;49.284;7.238;2023-04-21T08:52:29;98264.16;;;9.81;90.06
16431;BME280;8325;49.284;7.238;2023-04-21T08:56:41;98264.91;;;9.89;91.33
16431;BME280;8325;49.284;7.238;2023-04-21T09:00:53;98264.50;;;10.01;90.30
16431;BME280;8325;49.284;7.238;2023-04-21T09:05:05;98260.72;;;10.18;89.15
16431;BME280;8325;49.284;7.238;2023-04-21T09:09:18;98252.56;;;10.36;88.82
16431;BME280;8325;49.284;7.238;2023-04-21T09:13:35;98250.94;;;10.50;87.00
16431;BME280;8325;49.284;7.238;2023-04-21T09:17:53;98254.19;;;10.67;86.07
16431;BME280;8325;49.284;7.238;2023-04-21T09:22:05;98249.78;;;10.67;86.47
16431;BME280;8325;49.284;7.238;2023-04-21T09:26:18;98244.72;;;10.80;85.08
16431;BME280;8325;49.284;7.238;2023-04-21T09:30:37;98235.81;;;11.11;84.56
16431;BME280;8325;49.284;7.238;2023-04-21T09:34:49;98233.59;;;11.29;81.73
16431;BME280;8325;49.284;7.238;2023-04-21T09:39:03;98238.81;;;11.51;80.78
16431;BME280;8325;49.284;7.238;2023-04-21T09:43:18;98237.56;;;11.68;79.39
16431;BME280;8325;49.284;7.238;2023-04-21T09:47:31;98249.91;;;11.96;80.72
16431;BME280;8325;49.284;7.238;2023-04-21T09:51:46;98235.41;;;12.28;80.78
16431;BME280;8325;49.284;7.238;2023-04-21T09:56:01;98236.03;;;12.30;73.23
16431;BME280;8325;49.284;7.238;2023-04-21T10:00:15;98226.88;;;12.48;71.87
16431;BME280;8325;49.284;7.238;2023-04-21T10:04:30;98220.97;;;12.80;72.89
16431;BME280;8325;49.284;7.238;2023-04-21T10:08:44;98230.88;;;12.85;69.65
16431;BME280;8325;49.284;7.238;2023-04-21T10:12:57;98197.22;;;12.95;67.86
16431;BME280;8325;49.284;7.238;2023-04-21T10:17:10;98183.97;;;13.17;69.80
16431;BME280;8325;49.284;7.238;2023-04-21T10:21:21;98179.97;;;13.27;65.68
16431;BME280;8325;49.284;7.238;2023-04-21T10:25:38;98184.44;;;13.53;68.03
16431;BME280;8325;49.284;7.238;2023-04-21T10:29:49;98181.00;;;13.73;67.98
16431;BME280;8325;49.284;7.238;2023-04-21T10:38:35;98178.31;;;14.06;65.08
16431;BME280;8325;49.284;7.238;2023-04-21T10:42:50;98188.06;;;13.92;61.38
16431;BME280;8325;49.284;7.238;2023-04-21T10:47:06;98174.25;;;14.23;65.24
16431;BME280;8325;49.284;7.238;2023-04-21T10:51:18;98173.19;;;14.51;62.96
16431;BME280;8325;49.284;7.238;2023-04-21T10:55:29;98152.91;;;14.65;61.92
16431;BME280;8325;49.284;7.238;2023-04-21T10:59:41;98159.09;;;14.77;60.29
16431;BME280;8325;49.284;7.238;2023-04-21T11:03:53;98145.81;;;14.65;59.06
16431;BME280;8325;49.284;7.238;2023-04-21T11:08:13;98149.41;;;14.78;58.86
16431;BME280;8325;49.284;7.238;2023-04-21T11:12:30;98133.88;;;14.69;59.18
16431;BME280;8325;49.284;7.238;2023-04-21T11:16:42;98129.34;;;14.83;58.40
16431;BME280;8325;49.284;7.238;2023-04-21T11:20:54;98124.84;;;15.22;58.20
16431;BME280;8325;49.284;7.238;2023-04-21T11:25:15;98134.09;;;15.31;55.98
16431;BME280;8325;49.284;7.238;2023-04-21T11:29:27;98114.66;;;15.32;57.26
16431;BME280;8325;49.284;7.238;2023-04-21T11:33:41;98116.59;;;15.43;55.54
16431;BME280;8325;49.284;7.238;2023-04-21T11:37:54;98096.03;;;15.34;55.14
16431;BME280;8325;49.284;7.238;2023-04-21T11:42:06;98111.31;;;15.43;53.84
16431;BME280;8325;49.284;7.238;2023-04-21T11:46:22;98104.31;;;15.81;56.28
16431;BME280;8325;49.284;7.238;2023-04-21T11:50:34;98108.34;;;16.02;53.54
16431;BME280;8325;49.284;7.238;2023-04-21T11:54:54;98101.03;;;16.04;52.56
16431;BME280;8325;49.284;7.238;2023-04-21T11:59:10;98104.97;;;16.31;53.25
16431;BME280;8325;49.284;7.238;2023-04-21T12:03:22;98101.41;;;16.26;52.89
16431;BME280;8325;49.284;7.238;2023-04-21T12:07:39;98099.66;;;16.50;54.04
16431;BME280;8325;49.284;7.238;2023-04-21T12:11:53;98096.50;;;16.90;50.17
16431;BME280;8325;49.284;7.238;2023-04-21T12:16:05;98106.06;;;16.91;50.05
16431;BME280;8325;49.284;7.238;2023-04-21T12:20:22;98107.19;;;16.65;49.75
16431;BME280;8325;49.284;7.238;2023-04-21T12:24:34;98112.09;;;16.61;52.46
16431;BME280;8325;49.284;7.238;2023-04-21T12:28:47;98114.47;;;16.51;53.37
16431;BME280;8325;49.284;7.238;2023-04-21T12:32:58;98115.91;;;16.47;54.76
16431;BME280;8325;49.284;7.238;2023-04-21T12:37:10;98111.69;;;16.46;54.02
16431;BME280;8325;49.284;7.238;2023-04-21T12:41:22;98121.13;;;16.53;55.25
16431;BME280;8325;49.284;7.238;2023-04-21T12:45:34;98109.31;;;16.56;53.02
16431;BME280;8325;49.284;7.238;2023-04-21T12:49:46;98115.41;;;16.56;53.78
16431;BME280;8325;49.284;7.238;2023-04-21T12:53:58;98108.75;;;16.54;53.70
16431;BME280;8325;49.284;7.238;2023-04-21T12:58:09;98110.50;;;16.60;52.08
16431;BME280;8325;49.284;7.238;2023-04-21T13:02:23;98097.53;;;16.89;49.26
16431;BME280;8325;49.284;7.238;2023-04-21T13:06:37;98076.50;;;17.36;48.04
16431;BME280;8325;49.284;7.238;2023-04-21T13:10:49;98075.81;;;17.87;47.32
16431;BME280;8325;49.284;7.238;2023-04-21T13:15:00;98074.56;;;18.30;46.96
16431;BME280;8325;49.284;7.238;2023-04-21T13:19:12;98057.88;;;18.42;45.18
16431;BME280;8325;49.284;7.238;2023-04-21T13:23:23;98063.78;;;18.32;46.55
16431;BME280;8325;49.284;7.238;2023-04-21T13:27:35;98046.91;;;18.50;44.84
16431;BME280;8325;49.284;7.238;2023-04-21T13:31:48;98047.84;;;18.44;44.89
16431;BME280;8325;49.284;7.238;2023-04-21T13:36:01;98043.28;;;18.39;44.48
16431;BME280;8325;49.284;7.238;2023-04-21T13:40:13;98044.25;;;18.21;43.28
16431;BME280;8325;49.284;7.238;2023-04-21T13:44:25;98037.88;;;18.34;44.58
16431;BME280;8325;49.284;7.238;2023-04-21T13:48:37;98041.94;;;18.25;46.13
16431;BME280;8325;49.284;7.238;2023-04-21T13:52:48;98037.34;;;18.32;45.87
16431;BME280;8325;49.284;7.238;2023-04-21T13:57:00;98034.75;;;18.20;46.04
16431;BME280;8325;49.284;7.238;2023-04-21T14:01:12;98029.97;;;18.05;46.89
16431;BME280;8325;49.284;7.238;2023-04-21T14:05:25;98022.97;;;17.76;45.97
16431;BME280;8325;49.284;7.238;2023-04-21T14:09:36;98036.56;;;17.44;45.46
16431;BME280;8325;49.284;7.238;2023-04-21T14:13:48;98026.78;;;17.68;48.43
16431;BME280;8325;49.284;7.238;2023-04-21T14:18:19;98007.06;;;18.11;50.89
16431;BME280;8325;49.284;7.238;2023-04-21T14:22:31;98004.75;;;18.14;49.38
16431;BME280;8325;49.284;7.238;2023-04-21T14:26:43;98010.84;;;18.15;47.42
16431;BME280;8325;49.284;7.238;2023-04-21T14:30:54;97992.44;;;18.20;48.59
16431;BME280;8325;49.284;7.238;2023-04-21T14:35:06;97996.25;;;17.72;49.66
16431;BME280;8325;49.284;7.238;2023-04-21T14:39:18;97986.53;;;17.49;50.00
16431;BME280;8325;49.284;7.238;2023-04-21T14:43:29;97996.97;;;17.32;50.17
16431;BME280;8325;49.284;7.238;2023-04-21T14:47:42;97998.47;;;17.05;51.17
16431;BME280;8325;49.284;7.238;2023-04-21T14:51:54;97988.03;;;16.86;50.72
16431;BME280;8325;49.284;7.238;2023-04-21T14:56:06;98001.94;;;16.63;52.16
16431;BME280;8325;49.284;7.238;2023-04-21T15:00:18;98006.38;;;16.51;54.28
16431;BME280;8325;49.284;7.238;2023-04-21T15:04:29;97993.97;;;16.40;53.98
16431;BME280;8325;49.284;7.238;2023-04-21T15:08:41;97996.28;;;16.48;54.95
16431;BME280;8325;49.284;7.238;2023-04-21T15:12:52;97991.97;;;16.53;54.79
16431;BME280;8325;49.284;7.238;2023-04-21T15:17:04;97983.59;;;16.68;55.35
16431;BME280;8325;49.284;7.238;2023-04-21T15:21:18;97974.78;;;16.74;53.64
16431;BME280;8325;49.284;7.238;2023-04-21T15:25:29;97976.00;;;17.14;54.93
16431;BME280;8325;49.284;7.238;2023-04-21T15:29:41;97972.41;;;17.55;53.84
16431;BME280;8325;49.284;7.238;2023-04-21T15:33:52;97962.47;;;17.74;52.74
16431;BME280;8325;49.284;7.238;2023-04-21T15:38:04;97962.78;;;18.01;52.02
16431;BME280;8325;49.284;7.238;2023-04-21T15:42:16;97947.56;;;17.80;52.96
16431;BME280;8325;49.284;7.238;2023-04-21T15:46:28;97951.75;;;17.52;55.14
16431;BME280;8325;49.284;7.238;2023-04-21T15:50:39;97960.63;;;17.22;54.93
16431;BME280;8325;49.284;7.238;2023-04-21T15:54:51;97965.22;;;17.03;55.32
16431;BME280;8325;49.284;7.238;2023-04-21T15:59:03;97960.72;;;16.92;55.12
16431;BME280;8325;49.284;7.238;2023-04-21T16:03:14;97961.78;;;16.91;55.51
16431;BME280;8325;49.284;7.238;2023-04-21T16:07:26;97958.00;;;16.87;56.12
16431;BME280;8325;49.284;7.238;2023-04-21T16:11:38;97958.78;;;16.88;55.83
16431;BME280;8325;49.284;7.238;2023-04-21T16:15:50;97943.66;;;16.95;56.08
16431;BME280;8325;49.284;7.238;2023-04-21T16:20:03;97933.75;;;17.25;54.77
16431;BME280;8325;49.284;7.238;2023-04-21T16:24:15;97939.84;;;17.14;55.25
16431;BME280;8325;49.284;7.238;2023-04-21T16:28:27;97948.25;;;16.88;56.35
16431;BME280;8325;49.284;7.238;2023-04-21T16:32:38;97941.78;;;16.84;57.19
16431;BME280;8325;49.284;7.238;2023-04-21T16:36:50;97940.22;;;17.06;57.59
16431;BME280;8325;49.284;7.238;2023-04-21T16:41:02;97951.44;;;17.13;57.56
16431;BME280;8325;49.284;7.238;2023-04-21T16:45:14;97947.41;;;17.11;58.26
16431;BME280;8325;49.284;7.238;2023-04-21T16:49:25;97934.34;;;17.04;59.52
16431;BME280;8325;49.284;7.238;2023-04-21T16:53:37;97925.97;;;17.07;59.75
16431;BME280;8325;49.284;7.238;2023-04-21T16:57:50;97931.47;;;17.06;59.56
16431;BME280;8325;49.284;7.238;2023-04-21T17:02:02;97924.25;;;17.01;60.43
16431;BME280;8325;49.284;7.238;2023-04-21T17:06:14;97925.97;;;16.84;61.86
16431;BME280;8325;49.284;7.238;2023-04-21T17:10:29;97930.19;;;16.73;62.96
16431;BME280;8325;49.284;7.238;2023-04-21T17:14:41;97932.59;;;16.74;63.19
16431;BME280;8325;49.284;7.238;2023-04-21T17:18:52;97929.78;;;16.76;63.48
16431;BME280;8325;49.284;7.238;2023-04-21T17:23:05;97930.06;;;16.68;64.13
16431;BME280;8325;49.284;7.238;2023-04-21T17:27:16;97931.69;;;16.57;64.95
16431;BME280;8325;49.284;7.238;2023-04-21T17:31:28;97924.97;;;16.31;65.75
16431;BME280;8325;49.284;7.238;2023-04-21T17:35:40;97929.69;;;16.29;66.28
16431;BME280;8325;49.284;7.238;2023-04-21T17:40:12;97932.13;;;16.12;67.78
16431;BME280;8325;49.284;7.238;2023-04-21T17:44:24;97941.69;;;15.95;68.05
16431;BME280;8325;49.284;7.238;2023-04-21T17:48:36;97940.34;;;15.74;69.24
16431;BME280;8325;49.284;7.238;2023-04-21T17:52:47;97938.28;;;15.57;70.97
16431;BME280;8325;49.284;7.238;2023-04-21T17:57:00;97947.81;;;15.40;71.75
16431;BME280;8325;49.284;7.238;2023-04-21T18:01:12;97945.72;;;15.24;71.99
16431;BME280;8325;49.284;7.238;2023-04-21T18:05:23;97955.59;;;15.10;72.65
16431;BME280;8325;49.284;7.238;2023-04-21T18:09:35;97953.47;;;15.00;73.28
16431;BME280;8325;49.284;7.238;2023-04-21T18:13:46;97961.50;;;14.80;74.51
16431;BME280;8325;49.284;7.238;2023-04-21T18:17:58;97970.31;;;14.67;75.44
16431;BME280;8325;49.284;7.238;2023-04-21T18:22:10;97964.09;;;14.62;75.71
16431;BME280;8325;49.284;7.238;2023-04-21T18:26:22;97970.84;;;14.51;76.46
16431;BME280;8325;49.284;7.238;2023-04-21T18:30:38;97979.38;;;14.40;76.45
16431;BME280;8325;49.284;7.238;2023-04-21T18:34:49;97970.13;;;14.31;76.96
16431;BME280;8325;49.284;7.238;2023-04-21T18:39:01;97981.53;;;14.18;77.05
16431;BME280;8325;49.284;7.238;2023-04-21T18:43:13;97975.50;;;14.11;77.54
16431;BME280;8325;49.284;7.238;2023-04-21T18:47:25;97988.88;;;14.02;78.50
16431;BME280;8325;49.284;7.238;2023-04-21T18:51:36;97992.94;;;13.98;79.18
16431;BME280;8325;49.284;7.238;2023-04-21T18:55:48;98000.44;;;13.95;79.60
16431;BME280;8325;49.284;7.238;2023-04-21T19:00:00;97994.78;;;13.91;79.99
16431;BME280;8325;49.284;7.238;2023-04-21T19:04:11;98001.50;;;13.80;80.33
16431;BME280;8325;49.284;7.238;2023-04-21T19:08:23;98010.59;;;13.78;79.78
16431;BME280;8325;49.284;7.238;2023-04-21T19:12:53;98002.72;;;13.78;77.61
16431;BME280;8325;49.284;7.238;2023-04-21T19:17:04;98009.97;;;13.76;77.07
16431;BME280;8325;49.284;7.238;2023-04-21T19:21:16;98006.38;;;13.70;78.00
16431;BME280;8325;49.284;7.238;2023-04-21T19:25:29;98008.81;;;13.65;75.42
16431;BME280;8325;49.284;7.238;2023-04-21T19:29:40;98001.13;;;13.64;73.81
16431;BME280;8325;49.284;7.238;2023-04-21T19:33:52;98001.94;;;13.57;72.24
16431;BME280;8325;49.284;7.238;2023-04-21T19:38:04;98005.22;;;13.53;72.93
16431;BME280;8325;49.284;7.238;2023-04-21T19:42:16;97999.59;;;13.43;74.06
16431;BME280;8325;49.284;7.238;2023-04-21T19:46:28;98008.06;;;13.38;71.24
16431;BME280;8325;49.284;7.238;2023-04-21T19:50:40;98002.22;;;13.36;71.04
16431;BME280;8325;49.284;7.238;2023-04-21T19:54:51;98009.91;;;13.31;70.79
16431;BME280;8325;49.284;7.238;2023-04-21T19:59:03;97997.59;;;13.31;69.58
16431;BME280;8325;49.284;7.238;2023-04-21T20:03:16;97999.41;;;13.31;69.31
16431;BME280;8325;49.284;7.238;2023-04-21T20:07:28;97996.78;;;13.31;69.44
16431;BME280;8325;49.284;7.238;2023-04-21T20:11:40;97999.22;;;13.26;69.95
16431;BME280;8325;49.284;7.238;2023-04-21T20:15:51;98004.44;;;13.19;70.62
16431;BME280;8325;49.284;7.238;2023-04-21T20:20:04;98013.31;;;13.18;70.03
16431;BME280;8325;49.284;7.238;2023-04-21T20:24:15;98012.31;;;13.12;70.68
16431;BME280;8325;49.284;7.238;2023-04-21T20:28:27;98015.34;;;13.03;72.22
16431;BME280;8325;49.284;7.238;2023-04-21T20:32:39;98014.94;;;12.99;72.78
16431;BME280;8325;49.284;7.238;2023-04-21T20:36:51;98003.44;;;13.00;70.76
16431;BME280;8325;49.284;7.238;2023-04-21T20:41:04;98015.13;;;13.04;69.47
16431;BME280;8325;49.284;7.238;2023-04-21T20:45:16;98004.06;;;13.02;70.17
16431;BME280;8325;49.284;7.238;2023-04-21T20:49:27;98010.50;;;13.00;70.24
16431;BME280;8325;49.284;7.238;2023-04-21T20:53:39;98016.56;;;13.00;70.25
16431;BME280;8325;49.284;7.238;2023-04-21T20:57:51;98021.59;;;12.95;70.97
16431;BME280;8325;49.284;7.238;2023-04-21T21:02:02;98018.56;;;12.92;70.84
16431;BME280;8325;49.284;7.238;2023-04-21T21:06:14;98016.75;;;12.92;71.01
16431;BME280;8325;49.284;7.238;2023-04-21T21:10:26;98031.50;;;12.93;71.34
16431;BME280;8325;49.284;7.238;2023-04-21T21:14:38;98025.00;;;12.89;71.25
16431;BME280;8325;49.284;7.238;2023-04-21T21:18:50;98032.88;;;12.82;72.25
16431;BME280;8325;49.284;7.238;2023-04-21T21:23:01;98042.13;;;12.58;73.78
16431;BME280;8325;49.284;7.238;2023-04-21T21:27:13;98042.72;;;12.47;74.97
